createdAt,value
2017-03-17T00:00:42.279Z,99.99
2017-03-17T00:01:53.264Z,99.99
2017-03-17T00:03:04.452Z,99.99
2017-03-17T00:04:15.521Z,99.99
2017-03-17T00:05:26.722Z,99.99
2017-03-17T00:06:37.711Z,99.99
2017-03-17T00:07:48.696Z,99.99
2017-03-17T00:08:59.680Z,99.99
2017-03-17T00:10:10.675Z,99.99
2017-03-17T00:11:21.664Z,99.99
2017-03-17T00:12:32.653Z,99.99
2017-03-17T00:13:43.888Z,99.99
2017-03-17T00:14:54.873Z,99.99
2017-03-17T00:16:05.858Z,99.99
2017-03-17T00:17:16.856Z,99.99
2017-03-17T00:18:27.846Z,99.99
2017-03-17T00:19:38.834Z,99.99
2017-03-17T00:20:49.817Z,99.99
2017-03-17T00:22:00.788Z,99.99
2017-03-17T00:23:11.766Z,99.99
2017-03-17T00:24:22.803Z,99.99
2017-03-17T00:25:33.996Z,99.99
2017-03-17T00:26:45.186Z,99.99
2017-03-17T00:27:56.378Z,99.99
2017-03-17T00:29:07.361Z,99.99
2017-03-17T00:30:18.344Z,99.99
2017-03-17T00:31:29.329Z,99.99
2017-03-17T00:32:40.313Z,99.99
2017-03-17T00:33:51.301Z,99.99
2017-03-17T00:35:02.529Z,99.99
2017-03-17T00:36:13.517Z,99.99
2017-03-17T00:37:24.906Z,99.99
2017-03-17T00:38:35.887Z,99.99
2017-03-17T00:39:46.887Z,99.99
2017-03-17T00:40:57.893Z,99.99
2017-03-17T00:42:08.885Z,99.99
2017-03-17T00:43:19.876Z,99.99
2017-03-17T00:44:30.862Z,99.99
2017-03-17T00:45:42.103Z,99.99
2017-03-17T00:46:53.136Z,99.99
2017-03-17T00:48:04.118Z,99.99
2017-03-17T00:49:15.104Z,99.99
2017-03-17T00:50:26.084Z,99.99
2017-03-17T00:51:37.071Z,99.99
2017-03-17T00:52:48.058Z,99.99
2017-03-17T00:53:59.043Z,99.99
2017-03-17T00:55:10.028Z,99.99
2017-03-17T00:56:21.060Z,99.99
2017-03-17T00:57:32.055Z,99.99
2017-03-17T00:58:43.049Z,99.99
2017-03-17T00:59:54.039Z,99.99
2017-03-17T01:01:05.017Z,99.99
2017-03-17T01:02:16.008Z,99.99
2017-03-17T01:03:27.227Z,99.99
2017-03-17T01:04:38.220Z,99.99
2017-03-17T01:05:49.209Z,99.99
2017-03-17T01:07:00.249Z,99.99
2017-03-17T01:08:11.432Z,99.99
2017-03-17T01:09:22.422Z,99.99
2017-03-17T01:10:33.424Z,99.99
2017-03-17T01:11:44.413Z,99.99
2017-03-17T01:12:55.595Z,99.99
2017-03-17T01:14:06.584Z,99.99
2017-03-17T01:15:17.574Z,99.99
2017-03-17T01:16:28.764Z,99.99
2017-03-17T01:17:39.766Z,99.99
2017-03-17T01:18:50.769Z,99.99
2017-03-17T01:20:01.754Z,99.99
2017-03-17T01:21:12.741Z,99.99
2017-03-17T01:22:23.732Z,99.99
2017-03-17T01:23:34.932Z,99.99
2017-03-17T01:24:46.574Z,99.99
2017-03-17T01:25:57.562Z,99.44
2017-03-17T01:27:08.545Z,99.73
2017-03-17T01:28:19.536Z,99.99
2017-03-17T01:29:30.569Z,99.99
2017-03-17T01:30:41.555Z,99.99
2017-03-17T01:31:52.542Z,99.99
2017-03-17T01:33:03.520Z,99.99
2017-03-17T01:34:14.573Z,99.99
2017-03-17T01:35:25.570Z,99.99
2017-03-17T01:36:36.764Z,99.99
2017-03-17T01:37:47.961Z,99.99
2017-03-17T01:38:58.967Z,99.99
2017-03-17T01:40:09.964Z,99.99
2017-03-17T01:41:21.142Z,99.99
2017-03-17T01:42:32.337Z,99.99
2017-03-17T01:43:43.331Z,99.99
2017-03-17T01:44:54.572Z,99.99
2017-03-17T01:46:05.562Z,99.99
2017-03-17T01:47:16.752Z,99.99
2017-03-17T01:48:27.740Z,99.99
2017-03-17T01:49:38.727Z,99.99
2017-03-17T01:50:49.744Z,99.99
2017-03-17T01:52:00.724Z,99.99
2017-03-17T01:53:11.705Z,99.99
2017-03-17T01:54:22.696Z,99.99
2017-03-17T01:55:33.689Z,99.99
2017-03-17T01:56:44.878Z,99.99
2017-03-17T01:57:55.873Z,99.99
2017-03-17T01:59:06.863Z,99.99
2017-03-17T02:00:17.870Z,99.99
2017-03-17T02:01:29.067Z,99.99
2017-03-17T02:02:40.057Z,99.99
2017-03-17T02:03:51.046Z,99.99
2017-03-17T02:05:02.232Z,99.99
2017-03-17T02:06:13.270Z,99.99
2017-03-17T02:07:24.452Z,99.99
2017-03-17T02:08:35.442Z,99.99
2017-03-17T02:09:46.442Z,99.99
2017-03-17T02:10:57.436Z,99.99
2017-03-17T02:12:08.422Z,99.99
2017-03-17T02:13:19.410Z,99.99
2017-03-17T02:14:30.409Z,99.99
2017-03-17T02:15:41.392Z,99.99
2017-03-17T02:16:52.635Z,99.99
2017-03-17T02:18:03.617Z,99.99
2017-03-17T02:19:14.598Z,99.99
2017-03-17T02:20:25.579Z,99.99
2017-03-17T02:21:36.579Z,99.99
2017-03-17T02:22:47.764Z,99.99
2017-03-17T02:23:58.957Z,99.99
2017-03-17T02:25:09.950Z,99.99
2017-03-17T02:26:21.142Z,99.99
2017-03-17T02:27:32.385Z,99.99
2017-03-17T02:28:43.373Z,99.99
2017-03-17T02:29:54.366Z,99.99
2017-03-17T02:31:05.558Z,99.99
2017-03-17T02:32:16.746Z,99.99
2017-03-17T02:33:27.789Z,99.99
2017-03-17T02:34:38.776Z,99.99
2017-03-17T02:35:49.768Z,99.99
2017-03-17T02:37:00.762Z,99.99
2017-03-17T02:38:11.756Z,99.99
2017-03-17T02:39:22.757Z,99.99
2017-03-17T02:40:33.960Z,99.99
2017-03-17T02:41:44.956Z,99.99
2017-03-17T02:42:55.948Z,99.99
2017-03-17T02:44:06.946Z,99.99
2017-03-17T02:45:18.192Z,99.99
2017-03-17T02:46:29.177Z,99.99
2017-03-17T02:47:40.163Z,99.99
2017-03-17T02:48:51.152Z,99.99
2017-03-17T02:50:02.157Z,99.99
2017-03-17T02:51:13.350Z,99.99
2017-03-17T02:52:24.339Z,99.99
2017-03-17T02:53:35.533Z,99.99
2017-03-17T02:54:46.587Z,99.99
2017-03-17T02:55:57.781Z,99.99
2017-03-17T02:57:08.767Z,99.99
2017-03-17T02:58:19.757Z,99.99
2017-03-17T02:59:30.758Z,99.99
2017-03-17T03:00:41.749Z,99.99
2017-03-17T03:01:52.729Z,99.99
2017-03-17T03:03:03.717Z,99.99
2017-03-17T03:04:14.914Z,99.99
2017-03-17T03:05:25.967Z,99.99
2017-03-17T03:06:36.957Z,99.99
2017-03-17T03:07:47.962Z,99.99
2017-03-17T03:08:59.152Z,99.99
2017-03-17T03:10:10.150Z,99.99
2017-03-17T03:11:21.141Z,99.99
2017-03-17T03:12:32.151Z,99.99
2017-03-17T03:13:43.155Z,99.99
2017-03-17T03:14:54.162Z,99.99
2017-03-17T03:16:05.403Z,99.6
2017-03-17T03:17:16.793Z,99.99
2017-03-17T03:18:27.987Z,99.99
2017-03-17T03:19:38.978Z,99.99
2017-03-17T03:20:50.178Z,99.99
2017-03-17T03:22:01.374Z,99.99
2017-03-17T03:23:12.362Z,99.99
2017-03-17T03:24:23.356Z,99.99
2017-03-17T03:25:34.343Z,99.99
2017-03-17T03:26:45.326Z,99.99
2017-03-17T03:27:56.330Z,99.99
2017-03-17T03:29:07.323Z,99.99
2017-03-17T03:30:18.314Z,99.99
2017-03-17T03:31:29.301Z,99.99
2017-03-17T03:32:40.332Z,99.99
2017-03-17T03:33:51.327Z,99.99
2017-03-17T03:35:02.326Z,99.99
2017-03-17T03:36:13.313Z,99.99
2017-03-17T03:37:24.296Z,99.99
2017-03-17T03:38:35.290Z,99.99
2017-03-17T03:39:46.288Z,99.99
2017-03-17T03:40:57.288Z,99.99
2017-03-17T03:42:08.476Z,99.99
2017-03-17T03:43:19.930Z,99.99
2017-03-17T03:44:30.931Z,99.99
2017-03-17T03:45:41.918Z,99.99
2017-03-17T03:46:52.917Z,99.99
2017-03-17T03:48:03.913Z,99.99
2017-03-17T03:49:14.909Z,99.99
2017-03-17T03:50:25.907Z,99.99
2017-03-17T03:51:36.905Z,99.99
2017-03-17T03:52:47.902Z,99.99
2017-03-17T03:53:59.164Z,99.99
2017-03-17T03:55:10.161Z,99.99
2017-03-17T03:56:21.153Z,99.99
2017-03-17T03:57:32.139Z,99.99
2017-03-17T03:58:43.140Z,99.99
2017-03-17T03:59:54.145Z,99.99
2017-03-17T04:01:05.338Z,99.99
2017-03-17T04:02:16.532Z,99.99
2017-03-17T04:03:27.524Z,99.99
2017-03-17T04:04:38.580Z,99.99
2017-03-17T04:05:49.770Z,99.99
2017-03-17T04:07:00.760Z,99.99
2017-03-17T04:08:11.751Z,99.99
2017-03-17T04:09:23.148Z,99.99
2017-03-17T04:10:34.142Z,99.99
2017-03-17T04:11:45.140Z,99.99
2017-03-17T04:12:56.128Z,99.99
2017-03-17T04:14:07.129Z,99.99
2017-03-17T04:15:18.121Z,99.99
2017-03-17T04:16:29.308Z,99.99
2017-03-17T04:17:40.339Z,99.99
2017-03-17T04:18:51.359Z,99.99
2017-03-17T04:20:02.357Z,99.99
2017-03-17T04:21:13.549Z,99.99
2017-03-17T04:22:24.595Z,99.99
2017-03-17T04:23:35.794Z,99.99
2017-03-17T04:24:46.794Z,99.99
2017-03-17T04:25:57.796Z,99.99
2017-03-17T04:27:08.781Z,99.99
2017-03-17T04:28:19.767Z,99.99
2017-03-17T04:29:30.783Z,99.99
2017-03-17T04:30:41.786Z,99.99
2017-03-17T04:31:53.281Z,99.99
2017-03-17T04:33:04.274Z,99.99
2017-03-17T04:34:15.282Z,99.99
2017-03-17T04:35:26.479Z,99.99
2017-03-17T04:36:37.672Z,99.99
2017-03-17T04:37:48.896Z,99.99
2017-03-17T04:38:59.896Z,99.99
2017-03-17T04:40:10.888Z,99.99
2017-03-17T04:41:21.893Z,99.99
2017-03-17T04:42:32.929Z,99.99
2017-03-17T04:43:43.922Z,99.99
2017-03-17T04:44:54.932Z,99.99
2017-03-17T04:46:05.938Z,99.99
2017-03-17T04:47:16.928Z,99.99
2017-03-17T04:48:27.925Z,99.99
2017-03-17T04:49:38.930Z,99.99
2017-03-17T04:50:49.927Z,99.99
2017-03-17T04:52:01.120Z,99.99
2017-03-17T04:53:12.385Z,99.99
2017-03-17T04:54:23.382Z,99.99
2017-03-17T04:55:34.367Z,99.99
2017-03-17T04:56:45.351Z,99.99
2017-03-17T04:57:56.332Z,99.99
2017-03-17T04:59:07.525Z,99.99
2017-03-17T05:00:18.513Z,99.99
2017-03-17T05:01:29.712Z,99.99
2017-03-17T05:02:40.905Z,99.99
2017-03-17T05:03:51.905Z,99.99
2017-03-17T05:05:03.349Z,99.99
2017-03-17T05:06:14.329Z,99.99
2017-03-17T05:07:25.321Z,99.99
2017-03-17T05:08:36.517Z,99.99
2017-03-17T05:09:47.497Z,99.99
2017-03-17T05:10:58.688Z,99.99
2017-03-17T05:12:09.676Z,99.99
2017-03-17T05:13:20.860Z,99.99
2017-03-17T05:14:31.903Z,99.99
2017-03-17T05:15:42.897Z,99.99
2017-03-17T05:16:53.884Z,99.99
2017-03-17T05:18:04.871Z,99.99
2017-03-17T05:19:16.067Z,99.99
2017-03-17T05:20:27.050Z,99.99
2017-03-17T05:21:38.038Z,99.99
2017-03-17T05:22:49.428Z,99.99
2017-03-17T05:24:00.453Z,99.99
2017-03-17T05:25:11.488Z,99.99
2017-03-17T05:26:22.485Z,99.99
2017-03-17T05:27:33.479Z,99.99
2017-03-17T05:28:44.675Z,99.99
2017-03-17T05:29:55.669Z,99.99
2017-03-17T05:31:06.658Z,99.99
2017-03-17T05:32:17.644Z,99.99
2017-03-17T05:33:28.632Z,99.99
2017-03-17T05:34:39.825Z,99.99
2017-03-17T05:35:50.866Z,99.99
2017-03-17T05:37:01.858Z,99.99
2017-03-17T05:38:13.044Z,99.99
2017-03-17T05:39:24.051Z,99.99
2017-03-17T05:40:35.035Z,99.99
2017-03-17T05:41:46.018Z,99.99
2017-03-17T05:42:57.006Z,99.99
2017-03-17T05:44:08.006Z,99.99
2017-03-17T05:45:19.002Z,99.99
2017-03-17T05:46:29.993Z,99.99
2017-03-17T05:47:41.037Z,99.99
2017-03-17T05:48:52.031Z,99.99
2017-03-17T05:50:03.016Z,99.99
2017-03-17T05:51:14.003Z,99.99
2017-03-17T05:52:24.994Z,99.99
2017-03-17T05:53:36.187Z,99.99
2017-03-17T05:54:47.192Z,99.99
2017-03-17T05:55:58.196Z,99.99
2017-03-17T05:57:09.441Z,99.99
2017-03-17T05:58:20.429Z,99.99
2017-03-17T05:59:31.417Z,99.99
2017-03-17T06:00:42.407Z,99.99
2017-03-17T06:01:53.398Z,99.99
2017-03-17T06:03:04.593Z,99.99
2017-03-17T06:04:15.586Z,99.99
2017-03-17T06:05:26.590Z,99.99
2017-03-17T06:06:37.573Z,99.99
2017-03-17T06:07:48.613Z,99.99
2017-03-17T06:08:59.610Z,99.99
2017-03-17T06:10:10.612Z,99.99
2017-03-17T06:11:21.612Z,99.99
2017-03-17T06:12:32.607Z,99.99
2017-03-17T06:13:43.616Z,99.99
2017-03-17T06:14:54.612Z,99.99
2017-03-17T06:16:05.607Z,99.99
2017-03-17T06:17:16.799Z,99.99
2017-03-17T06:18:28.036Z,99.99
2017-03-17T06:19:39.030Z,99.99
2017-03-17T06:20:50.047Z,99.99
2017-03-17T06:22:01.434Z,99.99
2017-03-17T06:23:12.621Z,99.99
2017-03-17T06:24:23.616Z,99.99
2017-03-17T06:25:34.809Z,99.99
2017-03-17T06:26:45.997Z,99.99
2017-03-17T06:27:57.187Z,99.99
2017-03-17T06:29:08.179Z,99.99
2017-03-17T06:30:19.376Z,99.99
2017-03-17T06:31:30.767Z,99.99
2017-03-17T06:32:41.760Z,99.99
2017-03-17T06:33:52.755Z,99.99
2017-03-17T06:35:03.792Z,99.99
2017-03-17T06:36:14.985Z,99.99
2017-03-17T06:37:25.974Z,99.99
2017-03-17T06:38:36.970Z,99.99
2017-03-17T06:39:47.980Z,99.99
2017-03-17T06:40:58.968Z,99.99
2017-03-17T06:42:10.148Z,99.99
2017-03-17T06:43:21.140Z,99.99
2017-03-17T06:44:32.146Z,99.99
2017-03-17T06:45:43.185Z,99.99
2017-03-17T06:46:54.178Z,99.99
2017-03-17T06:48:05.161Z,99.99
2017-03-17T06:49:16.159Z,99.99
2017-03-17T06:50:27.158Z,99.99
2017-03-17T06:51:38.174Z,99.99
2017-03-17T06:52:49.157Z,99.99
2017-03-17T06:54:00.157Z,99.99
2017-03-17T06:55:11.156Z,99.99
2017-03-17T06:56:22.601Z,99.99
2017-03-17T06:57:33.615Z,99.99
2017-03-17T06:58:44.833Z,99.99
2017-03-17T06:59:56.039Z,99.99
2017-03-17T07:01:07.249Z,99.99
2017-03-17T07:02:18.234Z,99.99
2017-03-17T07:03:29.224Z,99.99
2017-03-17T07:04:40.220Z,99.99
2017-03-17T07:05:51.250Z,99.99
2017-03-17T07:07:02.495Z,99.99
2017-03-17T07:08:13.503Z,99.99
2017-03-17T07:09:24.494Z,99.99
2017-03-17T07:10:35.485Z,99.99
2017-03-17T07:11:46.682Z,99.99
2017-03-17T07:12:57.676Z,99.99
2017-03-17T07:14:08.665Z,99.99
2017-03-17T07:15:19.662Z,99.99
2017-03-17T07:16:30.858Z,99.99
2017-03-17T07:17:41.852Z,99.99
2017-03-17T07:18:52.899Z,99.99
2017-03-17T07:20:03.896Z,99.99
2017-03-17T07:21:14.882Z,99.99
2017-03-17T07:22:25.867Z,99.99
2017-03-17T07:23:36.859Z,99.99
2017-03-17T07:24:48.101Z,99.99
2017-03-17T07:25:59.295Z,99.99
2017-03-17T07:27:10.497Z,99.99
2017-03-17T07:28:21.753Z,99.99
2017-03-17T07:29:32.758Z,99.99
2017-03-17T07:30:43.752Z,99.99
2017-03-17T07:31:54.742Z,99.99
2017-03-17T07:33:05.736Z,99.99
2017-03-17T07:34:16.732Z,99.99
2017-03-17T07:35:27.725Z,99.99
2017-03-17T07:36:38.922Z,99.99
2017-03-17T07:37:49.914Z,99.99
2017-03-17T07:39:01.165Z,99.99
2017-03-17T07:40:12.163Z,99.99
2017-03-17T07:41:23.159Z,99.99
2017-03-17T07:42:34.148Z,99.99
2017-03-17T07:43:45.142Z,99.99
2017-03-17T07:44:56.149Z,99.99
2017-03-17T07:46:07.136Z,99.99
2017-03-17T07:47:18.528Z,99.99
2017-03-17T07:48:29.521Z,99.99
2017-03-17T07:49:40.774Z,99.99
2017-03-17T07:50:51.768Z,99.99
2017-03-17T07:52:02.750Z,99.99
2017-03-17T07:53:13.744Z,99.99
2017-03-17T07:54:24.941Z,99.99
2017-03-17T07:55:36.003Z,99.99
2017-03-17T07:56:47.004Z,99.99
2017-03-17T07:57:57.999Z,99.99
2017-03-17T07:59:09.001Z,99.99
2017-03-17T08:00:19.998Z,99.99
2017-03-17T08:01:30.990Z,99.99
2017-03-17T08:02:42.185Z,99.99
2017-03-17T08:03:53.185Z,99.99
2017-03-17T08:05:04.182Z,99.99
2017-03-17T08:06:15.375Z,99.99
2017-03-17T08:07:26.407Z,99.99
2017-03-17T08:08:37.405Z,99.99
2017-03-17T08:09:48.400Z,99.99
2017-03-17T08:10:59.394Z,99.99
2017-03-17T08:12:10.593Z,99.99
2017-03-17T08:13:21.580Z,99.99
2017-03-17T08:14:32.578Z,99.99
2017-03-17T08:15:43.569Z,99.99
2017-03-17T08:16:54.608Z,99.99
2017-03-17T08:18:05.599Z,99.99
2017-03-17T08:19:16.598Z,99.99
2017-03-17T08:20:27.595Z,99.99
2017-03-17T08:21:38.583Z,99.99
2017-03-17T08:22:49.579Z,99.99
2017-03-17T08:24:00.572Z,99.99
2017-03-17T08:25:11.569Z,99.99
2017-03-17T08:26:22.760Z,99.99
2017-03-17T08:27:34.057Z,99.99
2017-03-17T08:28:45.262Z,99.99
2017-03-17T08:29:56.244Z,99.99
2017-03-17T08:31:07.269Z,99.99
2017-03-17T08:32:18.468Z,99.99
2017-03-17T08:33:29.460Z,99.99
2017-03-17T08:34:40.456Z,99.99
2017-03-17T08:35:51.447Z,99.99
2017-03-17T08:37:02.440Z,99.99
2017-03-17T08:38:13.682Z,99.99
2017-03-17T08:39:24.692Z,99.99
2017-03-17T08:40:35.672Z,99.99
2017-03-17T08:41:46.663Z,99.99
2017-03-17T08:42:57.861Z,99.99
2017-03-17T08:44:08.854Z,99.99
2017-03-17T08:45:20.045Z,99.99
2017-03-17T08:46:31.243Z,99.99
2017-03-17T08:47:42.440Z,99.99
2017-03-17T08:48:53.439Z,99.99
2017-03-17T08:50:04.679Z,99.99
2017-03-17T08:51:15.670Z,99.99
2017-03-17T08:52:26.657Z,97.99
2017-03-17T08:53:37.651Z,95.27
2017-03-17T08:54:48.857Z,90.26
2017-03-17T08:55:59.881Z,86.68
2017-03-17T08:57:10.885Z,82.71
2017-03-17T08:58:21.886Z,79.02
2017-03-17T08:59:33.143Z,77.34
2017-03-17T09:00:44.350Z,77.06
2017-03-17T09:01:55.353Z,75.81
2017-03-17T09:03:06.367Z,72.79
2017-03-17T09:04:17.772Z,71.45
2017-03-17T09:05:28.789Z,69.67
2017-03-17T09:06:39.986Z,69.67
2017-03-17T09:07:51.191Z,69.67
2017-03-17T09:09:02.404Z,70.68
2017-03-17T09:10:13.669Z,71.89
2017-03-17T09:11:24.676Z,71.95
2017-03-17T09:12:35.676Z,72.33
2017-03-17T09:13:46.717Z,71.8
2017-03-17T09:14:57.715Z,71.03
2017-03-17T09:16:08.922Z,70.4
2017-03-17T09:17:19.926Z,68.62
2017-03-17T09:18:30.950Z,68.9
2017-03-17T09:19:42.165Z,67.21
2017-03-17T09:20:53.198Z,66.09
2017-03-17T09:22:04.406Z,66.09
2017-03-17T09:23:15.407Z,65.14
2017-03-17T09:24:26.427Z,65.23
2017-03-17T09:25:37.430Z,62.96
2017-03-17T09:26:48.640Z,62.55
2017-03-17T09:27:59.649Z,63.51
2017-03-17T09:29:10.870Z,63.13
2017-03-17T09:30:21.892Z,62.49
2017-03-17T09:31:32.894Z,61.53
2017-03-17T09:32:43.952Z,62.39
2017-03-17T09:33:55.178Z,62.23
2017-03-17T09:35:06.192Z,60.89
2017-03-17T09:36:17.399Z,60.82
2017-03-17T09:37:28.413Z,59.48
2017-03-17T09:38:39.426Z,60.47
2017-03-17T09:39:50.440Z,59.61
2017-03-17T09:41:01.449Z,60.11
2017-03-17T09:42:13.112Z,58.58
2017-03-17T09:43:24.131Z,58.51
2017-03-17T09:44:35.141Z,57.93
2017-03-17T09:45:46.360Z,56.62
2017-03-17T09:46:57.370Z,56.59
2017-03-17T09:48:08.376Z,56.62
2017-03-17T09:49:19.385Z,56.14
2017-03-17T09:50:30.598Z,57.36
2017-03-17T09:51:41.612Z,58.67
2017-03-17T09:52:53.075Z,59.99
2017-03-17T09:54:04.083Z,60.72
2017-03-17T09:55:15.097Z,60.6
2017-03-17T09:56:26.099Z,61.63
2017-03-17T09:57:37.098Z,61.69
2017-03-17T09:58:48.155Z,61.69
2017-03-17T09:59:59.361Z,60.64
2017-03-17T10:01:10.369Z,61.02
2017-03-17T10:02:21.396Z,61.28
2017-03-17T10:03:32.403Z,63.67
2017-03-17T10:04:43.409Z,61.66
2017-03-17T10:05:54.650Z,61.18
2017-03-17T10:07:06.057Z,63.57
2017-03-17T10:08:17.266Z,65.17
2017-03-17T10:09:28.275Z,65.74
2017-03-17T10:10:39.527Z,63.23
2017-03-17T10:11:50.730Z,61.41
2017-03-17T10:13:01.738Z,62.43
2017-03-17T10:14:12.942Z,60.13
2017-03-17T10:15:23.942Z,63.76
2017-03-17T10:16:35.341Z,63.29
2017-03-17T10:17:46.573Z,64.62
2017-03-17T10:18:57.571Z,65.07
2017-03-17T10:20:08.888Z,66.13
2017-03-17T10:21:19.894Z,66.13
2017-03-17T10:22:30.898Z,65.17
2017-03-17T10:23:41.908Z,64.22
2017-03-17T10:24:52.909Z,65.17
2017-03-17T10:26:03.921Z,65.68
2017-03-17T10:27:14.917Z,63.48
2017-03-17T10:28:25.919Z,62.65
2017-03-17T10:29:36.923Z,61.98
2017-03-17T10:30:48.168Z,62.94
2017-03-17T10:31:59.177Z,62.49
2017-03-17T10:33:10.180Z,64.22
2017-03-17T10:34:21.186Z,64.22
2017-03-17T10:35:32.180Z,63.35
2017-03-17T10:36:43.185Z,64.28
2017-03-17T10:37:54.394Z,63.7
2017-03-17T10:39:05.592Z,65.14
2017-03-17T10:40:16.599Z,66.25
2017-03-17T10:41:27.845Z,67.78
2017-03-17T10:42:38.838Z,66.44
2017-03-17T10:43:49.836Z,66.31
2017-03-17T10:45:00.846Z,66.5
2017-03-17T10:46:11.850Z,66.6
2017-03-17T10:47:23.048Z,67.18
2017-03-17T10:48:34.246Z,66.7
2017-03-17T10:49:45.255Z,67.71
2017-03-17T10:50:56.256Z,71.63
2017-03-17T10:52:07.452Z,73.63
2017-03-17T10:53:18.450Z,70.1
2017-03-17T10:54:29.459Z,74.02
2017-03-17T10:55:40.651Z,72.36
2017-03-17T10:56:51.653Z,75.13
2017-03-17T10:58:02.659Z,74.93
2017-03-17T10:59:13.906Z,72.55
2017-03-17T11:00:24.929Z,75.6
2017-03-17T11:01:36.121Z,77.32
2017-03-17T11:02:47.152Z,76.37
2017-03-17T11:03:58.156Z,75.7
2017-03-17T11:05:09.173Z,72.93
2017-03-17T11:06:20.172Z,73.79
2017-03-17T11:07:31.166Z,73.28
2017-03-17T11:08:42.454Z,72.89
2017-03-17T11:09:53.452Z,73.08
2017-03-17T11:11:04.451Z,73.47
2017-03-17T11:12:15.646Z,76.23
2017-03-17T11:13:26.649Z,76.14
2017-03-17T11:14:37.647Z,73.85
2017-03-17T11:15:48.637Z,72.71
2017-03-17T11:16:59.626Z,74.04
2017-03-17T11:18:10.623Z,78.14
2017-03-17T11:19:22.078Z,75.47
2017-03-17T11:20:33.274Z,74.71
2017-03-17T11:21:44.291Z,74.32
2017-03-17T11:22:55.288Z,73.47
2017-03-17T11:24:06.289Z,76.23
2017-03-17T11:25:17.287Z,75.53
2017-03-17T11:26:28.283Z,75.24
2017-03-17T11:27:39.275Z,74.77
2017-03-17T11:28:50.276Z,77.06
2017-03-17T11:30:01.340Z,77.15
2017-03-17T11:31:12.335Z,77.06
2017-03-17T11:32:23.329Z,77.44
2017-03-17T11:33:34.326Z,78.67
2017-03-17T11:34:45.327Z,78.2
2017-03-17T11:35:56.315Z,76.2
2017-03-17T11:37:07.517Z,78.3
2017-03-17T11:38:18.716Z,78.96
2017-03-17T11:39:29.718Z,81.92
2017-03-17T11:40:40.724Z,83.25
2017-03-17T11:41:51.768Z,80.11
2017-03-17T11:43:03.166Z,79.82
2017-03-17T11:44:14.164Z,80.83
2017-03-17T11:45:25.169Z,81.92
2017-03-17T11:46:36.375Z,82.2
2017-03-17T11:47:47.371Z,79.53
2017-03-17T11:48:58.367Z,80.58
2017-03-17T11:50:09.393Z,80.2
2017-03-17T11:51:20.435Z,77.62
2017-03-17T11:52:31.433Z,76.86
2017-03-17T11:53:42.428Z,76.86
2017-03-17T11:54:53.423Z,77.2
2017-03-17T11:56:04.427Z,76.64
2017-03-17T11:57:15.409Z,76.82
2017-03-17T11:58:26.404Z,76.1
2017-03-17T11:59:37.398Z,77.44
2017-03-17T12:00:48.400Z,77.25
2017-03-17T12:01:59.453Z,76.86
2017-03-17T12:03:10.444Z,77.62
2017-03-17T12:04:21.652Z,75.53
2017-03-17T12:05:32.850Z,75.05
2017-03-17T12:06:43.848Z,76.29
2017-03-17T12:07:54.841Z,77.72
2017-03-17T12:09:05.843Z,78.58
2017-03-17T12:10:16.846Z,76.2
2017-03-17T12:11:28.046Z,77.53
2017-03-17T12:12:39.089Z,78.1
2017-03-17T12:13:50.090Z,78.67
2017-03-17T12:15:01.505Z,77.34
2017-03-17T12:16:12.500Z,78.39
2017-03-17T12:17:23.521Z,76.96
2017-03-17T12:18:34.716Z,78.77
2017-03-17T12:19:45.706Z,78.1
2017-03-17T12:20:56.689Z,77.06
2017-03-17T12:22:07.682Z,78.49
2017-03-17T12:23:18.677Z,78.1
2017-03-17T12:24:29.919Z,77.82
2017-03-17T12:25:40.928Z,78.96
2017-03-17T12:26:51.927Z,78.1
2017-03-17T12:28:02.919Z,78.01
2017-03-17T12:29:13.920Z,76.96
2017-03-17T12:30:24.941Z,79.44
2017-03-17T12:31:35.936Z,78.67
2017-03-17T12:32:47.137Z,76.57
2017-03-17T12:33:58.183Z,76.39
2017-03-17T12:35:09.177Z,78.58
2017-03-17T12:36:20.162Z,77.06
2017-03-17T12:37:31.365Z,78.3
2017-03-17T12:38:42.349Z,78.2
2017-03-17T12:39:53.546Z,77.34
2017-03-17T12:41:04.546Z,76.67
2017-03-17T12:42:15.741Z,76.1
2017-03-17T12:43:26.739Z,76.96
2017-03-17T12:44:37.789Z,76.39
2017-03-17T12:45:48.980Z,74.96
2017-03-17T12:46:59.965Z,73.81
2017-03-17T12:48:10.959Z,72.03
2017-03-17T12:49:22.164Z,74.48
2017-03-17T12:50:33.361Z,73.33
2017-03-17T12:51:44.768Z,74.1
2017-03-17T12:52:55.759Z,75.43
2017-03-17T12:54:06.762Z,75.43
2017-03-17T12:55:17.806Z,76.86
2017-03-17T12:56:28.801Z,76.2
2017-03-17T12:57:39.996Z,76.67
2017-03-17T12:58:50.995Z,74.57
2017-03-17T13:00:01.996Z,76.67
2017-03-17T13:01:12.990Z,74.29
2017-03-17T13:02:23.975Z,75.72
2017-03-17T13:03:34.962Z,75.81
2017-03-17T13:04:45.999Z,76.96
2017-03-17T13:05:56.997Z,76.39
2017-03-17T13:07:07.998Z,74.29
2017-03-17T13:08:18.991Z,74.19
2017-03-17T13:09:29.994Z,75.53
2017-03-17T13:10:40.983Z,76.1
2017-03-17T13:11:51.977Z,76.96
2017-03-17T13:13:03.228Z,75.72
2017-03-17T13:14:14.233Z,76.04
2017-03-17T13:15:25.236Z,74.13
2017-03-17T13:16:36.234Z,74.42
2017-03-17T13:17:47.229Z,74.77
2017-03-17T13:18:58.231Z,75.81
2017-03-17T13:20:09.222Z,75.53
2017-03-17T13:21:20.216Z,75.62
2017-03-17T13:22:31.665Z,75.66
2017-03-17T13:23:42.659Z,76.1
2017-03-17T13:24:53.669Z,76.2
2017-03-17T13:26:05.074Z,76.67
2017-03-17T13:27:16.257Z,76.1
2017-03-17T13:28:27.462Z,77.34
2017-03-17T13:29:38.455Z,77.25
2017-03-17T13:30:49.443Z,78.86
2017-03-17T13:32:00.480Z,78.86
2017-03-17T13:33:11.530Z,76.86
2017-03-17T13:34:22.533Z,76.77
2017-03-17T13:35:33.526Z,75.15
2017-03-17T13:36:44.518Z,76.54
2017-03-17T13:37:55.512Z,77.59
2017-03-17T13:39:06.525Z,77.11
2017-03-17T13:40:17.733Z,76.25
2017-03-17T13:41:28.727Z,76.29
2017-03-17T13:42:39.718Z,73.33
2017-03-17T13:43:51.179Z,73.81
2017-03-17T13:45:02.171Z,70.95
2017-03-17T13:46:13.174Z,71.43
2017-03-17T13:47:24.178Z,69.52
2017-03-17T13:48:35.178Z,68.95
2017-03-17T13:49:46.378Z,70.19
2017-03-17T13:50:57.400Z,70
2017-03-17T13:52:08.420Z,70.09
2017-03-17T13:53:19.410Z,66.75
2017-03-17T13:54:30.610Z,68.09
2017-03-17T13:55:41.655Z,67.14
2017-03-17T13:56:52.853Z,66.56
2017-03-17T13:58:03.857Z,66.28
2017-03-17T13:59:14.863Z,64.47
2017-03-17T14:00:25.850Z,67.52
2017-03-17T14:01:36.841Z,68.47
2017-03-17T14:02:47.830Z,66.94
2017-03-17T14:03:58.825Z,66.09
2017-03-17T14:05:09.874Z,68.18
2017-03-17T14:06:20.857Z,69.04
2017-03-17T14:07:31.856Z,67.8
2017-03-17T14:08:43.064Z,67.52
2017-03-17T14:09:54.271Z,69.71
2017-03-17T14:11:05.272Z,67.14
2017-03-17T14:12:16.267Z,68.85
2017-03-17T14:13:27.253Z,69.62
2017-03-17T14:14:38.451Z,70.79
2017-03-17T14:15:49.903Z,70.32
2017-03-17T14:17:00.897Z,69.27
2017-03-17T14:18:11.903Z,69.17
2017-03-17T14:19:22.915Z,68.73
2017-03-17T14:20:33.910Z,68.73
2017-03-17T14:21:45.107Z,66.92
2017-03-17T14:22:56.095Z,67.74
2017-03-17T14:24:07.090Z,67.74
2017-03-17T14:25:18.293Z,66.31
2017-03-17T14:26:29.555Z,65.83
2017-03-17T14:27:40.562Z,66.12
2017-03-17T14:28:51.554Z,65.83
2017-03-17T14:30:02.544Z,66.47
2017-03-17T14:31:13.543Z,67.61
2017-03-17T14:32:24.749Z,67.9
2017-03-17T14:33:35.943Z,67.9
2017-03-17T14:34:46.929Z,67.61
2017-03-17T14:35:57.926Z,69.33
2017-03-17T14:37:08.913Z,68.6
2017-03-17T14:38:20.359Z,69.17
2017-03-17T14:39:31.357Z,69.27
2017-03-17T14:40:42.347Z,69.08
2017-03-17T14:41:53.347Z,70.13
2017-03-17T14:43:04.343Z,68.79
2017-03-17T14:44:15.345Z,69.08
2017-03-17T14:45:26.342Z,68.76
2017-03-17T14:46:37.343Z,69.27
2017-03-17T14:47:48.402Z,69.52
2017-03-17T14:48:59.603Z,67.9
2017-03-17T14:50:10.602Z,66.75
2017-03-17T14:51:21.597Z,67.71
2017-03-17T14:52:32.589Z,69.23
2017-03-17T14:53:43.589Z,66.66
2017-03-17T14:54:54.788Z,67.61
2017-03-17T14:56:05.790Z,67.71
2017-03-17T14:57:16.783Z,68.09
2017-03-17T14:58:28.055Z,67.99
2017-03-17T14:59:39.260Z,65.52
2017-03-17T15:00:50.256Z,66.47
2017-03-17T15:02:01.255Z,67.23
2017-03-17T15:03:12.250Z,67.42
2017-03-17T15:04:23.246Z,66.66
2017-03-17T15:05:34.248Z,67.99
2017-03-17T15:06:45.445Z,68.18
2017-03-17T15:07:56.662Z,67.23
2017-03-17T15:09:07.729Z,67.71
2017-03-17T15:10:18.928Z,67.42
2017-03-17T15:11:30.123Z,68.47
2017-03-17T15:12:41.117Z,67.61
2017-03-17T15:13:52.114Z,67.99
2017-03-17T15:15:03.103Z,68.66
2017-03-17T15:16:14.102Z,69.62
2017-03-17T15:17:25.297Z,68.95